Imperial Beach, CA (91933)

8:57 PM PST on December 26, 2014 (GMT -0800)
KCAIMPER2 | Change Station
CLOSE
Current Station
Personal Weather Station
Location: Imperial Beach, CA
Elevation: 14 ft
Nearby Weather Stations
Active Advisory: Frost Advisory

Elev 14 ft 32.58 °N, 117.13 °W | Updated 2 minutes ago

Clear
Clear
50.8 °F
Feels Like 50.8 °F
N
2.0
Wind Variable Wind from East
Gusts 5.0 mph

Today
High -- | Low -- °F
--% Chance of Precip.
Yesterday
High -- | Low -- °F
Precip. -- in
6:48 AM 4:49 PM
Waxing Crescent, 32% visible
Pressure 30.14 in
Visibility -9999.0 miles
Clouds Clear
Dew Point 32 °F
Humidity 49%
Rainfall 0.00 in
Snow Depth Not available.
UV 0 out of 12
Pollen 5.70 out of 12
Air Quality Not available.
Flu Activity Not available.
METAR KNRS 270356Z AUTO 11004KT CLR 09/01 A3014 RMK AO2 SLP207 T00890011 PWINO $

More Conditions Fewer Conditions

Pressure 30.14 in
Visibility -9999.0 miles
Clouds Clear
Dew Point 32 °F
Humidity 49%
Rainfall 0.00 in
Snow Depth Not available.
UV 0 out of 12
Pollen 5.70 out of 12
Air Quality Not available.
Flu Activity Not available.
METAR KNRS 270356Z AUTO 11004KT CLR 09/01 A3014 RMK AO2 SLP207 T00890011 PWINO $

More Conditions Fewer Conditions

10-Day Weather Forecast

Almanac

Astronomy

Dec. 26, 2014 Rise Set
Actual Time
Civil Twilight
Nautical Twilight
Astronomical Twilight
Moon
Length of Visible Light
Length of Day
Tomorrow will be .
, % of the Moon is Illuminated

Today's Extremes

State Highs State Lows

Community

WunderPhotos

Upload Photos

1,780,847 photos uploaded!

WunderBlogs® & News

Nearby

Air Quality

  Air Quality AQ Index Pollutant
Not available.

Snow Depth

Station Depth Elevation

Earthquake Activity

City Distance Mag. Time & Date
Minimum magnitude displayed is 2.5.

Coastal Water Temperatures

Place Temperature

Nearby Weather Stations